This is the latest recevied weather packets stored in our database for station/object W5DRO-13. If no packets are shown the sender has not sent any weather packets the latest 10 day(s).
| Time | Temp. | Humidity | Pressure | Rain* | Wind** | Luminosity | Snow |
|---|---|---|---|---|---|---|---|
| 1777494105 | 19.44° C | 50% | 1018 hPa | 0 mm | - | - | - |
| 1777493803 | 19.44° C | 51% | 1018.1 hPa | 0 mm | - | - | - |
| 1777486227 | 18.89° C | 54% | 1019.1 hPa | 0 mm | - | - | - |
| 1777483496 | 18.33° C | 56% | 1020.1 hPa | 0 mm | - | - | - |
| 1777482893 | 17.78° C | 56% | 1020 hPa | 0 mm | - | - | - |
| 1777480770 | 16.11° C | 61% | 1020.6 hPa | 0 mm | - | - | - |
| 1777480467 | 15.56° C | 62% | 1020.7 hPa | 0 mm | - | - | - |
| 1777480163 | 15.56° C | 63% | 1020.8 hPa | 0 mm | - | - | - |
| 1777478041 | 15° C | 64% | 1020.5 hPa | 0 mm | - | - | - |
| 1777477736 | 15° C | 65% | 1020.3 hPa | 0 mm | - | - | - |
| 1777477129 | 14.44° C | 65% | 1020.3 hPa | 0 mm | - | - | - |
| 1777476826 | 14.44° C | 67% | 1020.2 hPa | 0 mm | - | - | - |
| 1777476524 | 13.89° C | 67% | 1020.3 hPa | 0 mm | - | - | - |
| 1777476220 | 13.89° C | 68% | 1020.2 hPa | 0 mm | - | - | - |
| 1777475915 | 13.89° C | 67% | 1020.3 hPa | 0 mm | - | - | - |
| 1777475309 | 13.33° C | 69% | 1020.5 hPa | 0 mm | - | - | - |
| 1777475004 | 13.89° C | 68% | 1020.5 hPa | 0 mm | - | - | - |
| 1777474701 | 13.89° C | 68% | 1020.5 hPa | 0 mm | - | - | - |
| 1777473488 | 12.78° C | 72% | 1020.8 hPa | 0 mm | - | - | - |
| 1777472880 | 11.67° C | 74% | 1021 hPa | 0 mm | - | - | - |
| 1777472576 | 11.67° C | 74% | 1020.8 hPa | 0 mm | - | - | - |
| 1777472273 | 11.67° C | 74% | 1020.9 hPa | 0 mm | - | - | - |
| 1777471969 | 11.11° C | 75% | 1021 hPa | 0 mm | - | - | - |
| 1777471363 | 11.11° C | 77% | 1021 hPa | 0 mm | - | - | - |
| 1777469846 | 10° C | 80% | 1020.7 hPa | 0 mm | - | - | - |
* Rain latest hour (hover to see other rain measurements)
** Current wind speed in m/s (hover to see current wind gust speed)